sensor_id;sensor_type;location;lat;lon;timestamp;pressure;altitude;pressure_sealevel;temperature;humidity
76653;BME280;65563;45.970;12.680;2023-02-28T00:00:27;101906.03;;;4.79;46.34
76653;BME280;65563;45.970;12.680;2023-02-28T00:01:27;101908.16;;;4.85;46.04
76653;BME280;65563;45.970;12.680;2023-02-28T00:02:27;101899.44;;;4.85;45.88
76653;BME280;65563;45.970;12.680;2023-02-28T00:03:27;101906.22;;;4.87;46.08
76653;BME280;65563;45.970;12.680;2023-02-28T00:04:28;101906.47;;;4.84;46.18
76653;BME280;65563;45.970;12.680;2023-02-28T00:05:28;101900.38;;;4.84;45.66
76653;BME280;65563;45.970;12.680;2023-02-28T00:06:28;101909.09;;;4.84;46.21
76653;BME280;65563;45.970;12.680;2023-02-28T00:07:29;101913.19;;;4.88;46.06
76653;BME280;65563;45.970;12.680;2023-02-28T00:08:29;101906.59;;;4.94;45.82
76653;BME280;65563;45.970;12.680;2023-02-28T00:09:30;101902.38;;;4.91;45.91
76653;BME280;65563;45.970;12.680;2023-02-28T00:10:30;101909.34;;;4.92;45.94
76653;BME280;65563;45.970;12.680;2023-02-28T00:11:30;101910.28;;;4.91;46.16
76653;BME280;65563;45.970;12.680;2023-02-28T00:12:31;101910.19;;;4.93;46.12
76653;BME280;65563;45.970;12.680;2023-02-28T00:13:31;101905.75;;;4.93;46.14
76653;BME280;65563;45.970;12.680;2023-02-28T00:14:31;101903.84;;;4.95;46.11
76653;BME280;65563;45.970;12.680;2023-02-28T00:15:32;101908.00;;;4.98;45.90
76653;BME280;65563;45.970;12.680;2023-02-28T00:16:32;101912.81;;;4.93;45.71
76653;BME280;65563;45.970;12.680;2023-02-28T00:17:32;101922.50;;;4.92;45.86
76653;BME280;65563;45.970;12.680;2023-02-28T00:18:32;101912.91;;;4.91;45.95
76653;BME280;65563;45.970;12.680;2023-02-28T00:19:32;101914.00;;;5.00;45.97
76653;BME280;65563;45.970;12.680;2023-02-28T00:20:33;101917.09;;;4.94;46.51
76653;BME280;65563;45.970;12.680;2023-02-28T00:21:33;101916.63;;;5.00;46.34
76653;BME280;65563;45.970;12.680;2023-02-28T00:22:33;101916.75;;;4.98;46.28
76653;BME280;65563;45.970;12.680;2023-02-28T00:23:33;101922.03;;;4.98;46.66
76653;BME280;65563;45.970;12.680;2023-02-28T00:24:34;101925.97;;;4.93;46.49
76653;BME280;65563;45.970;12.680;2023-02-28T00:25:34;101925.97;;;4.93;46.36
76653;BME280;65563;45.970;12.680;2023-02-28T00:26:34;101927.53;;;4.95;46.49
76653;BME280;65563;45.970;12.680;2023-02-28T00:27:35;101932.19;;;5.03;46.50
76653;BME280;65563;45.970;12.680;2023-02-28T00:28:35;101939.34;;;5.01;46.48
76653;BME280;65563;45.970;12.680;2023-02-28T00:29:35;101936.97;;;4.98;46.42
76653;BME280;65563;45.970;12.680;2023-02-28T00:30:36;101931.59;;;4.99;46.32
76653;BME280;65563;45.970;12.680;2023-02-28T00:31:36;101932.81;;;4.95;46.49
76653;BME280;65563;45.970;12.680;2023-02-28T00:32:36;101933.16;;;5.02;46.51
76653;BME280;65563;45.970;12.680;2023-02-28T00:33:36;101933.63;;;4.96;46.12
76653;BME280;65563;45.970;12.680;2023-02-28T00:34:36;101933.59;;;5.07;46.25
76653;BME280;65563;45.970;12.680;2023-02-28T00:35:36;101937.66;;;5.11;46.29
76653;BME280;65563;45.970;12.680;2023-02-28T00:36:37;101936.97;;;5.09;46.51
76653;BME280;65563;45.970;12.680;2023-02-28T00:37:37;101944.59;;;5.12;46.21
76653;BME280;65563;45.970;12.680;2023-02-28T00:38:38;101936.09;;;5.09;46.22
76653;BME280;65563;45.970;12.680;2023-02-28T00:39:38;101932.88;;;5.05;46.04
76653;BME280;65563;45.970;12.680;2023-02-28T00:40:39;101941.63;;;5.06;46.09
76653;BME280;65563;45.970;12.680;2023-02-28T00:41:39;101943.31;;;5.07;46.45
76653;BME280;65563;45.970;12.680;2023-02-28T00:42:39;101941.88;;;5.02;46.92
76653;BME280;65563;45.970;12.680;2023-02-28T00:43:39;101938.72;;;5.09;45.90
76653;BME280;65563;45.970;12.680;2023-02-28T00:44:40;101937.66;;;5.11;46.58
76653;BME280;65563;45.970;12.680;2023-02-28T00:45:41;101941.84;;;5.14;46.53
76653;BME280;65563;45.970;12.680;2023-02-28T00:46:41;101935.59;;;5.15;46.55
76653;BME280;65563;45.970;12.680;2023-02-28T00:47:41;101945.69;;;5.10;45.86
76653;BME280;65563;45.970;12.680;2023-02-28T00:48:41;101940.44;;;5.10;46.00
76653;BME280;65563;45.970;12.680;2023-02-28T00:49:41;101943.50;;;5.15;46.04
76653;BME280;65563;45.970;12.680;2023-02-28T00:50:41;101938.72;;;5.20;46.11
76653;BME280;65563;45.970;12.680;2023-02-28T00:51:42;101941.84;;;5.14;46.12
76653;BME280;65563;45.970;12.680;2023-02-28T00:52:42;101946.88;;;5.17;45.91
76653;BME280;65563;45.970;12.680;2023-02-28T00:53:42;101947.13;;;5.14;45.80
76653;BME280;65563;45.970;12.680;2023-02-28T00:54:42;101953.94;;;5.16;45.68
76653;BME280;65563;45.970;12.680;2023-02-28T00:55:42;101943.13;;;5.19;46.04
76653;BME280;65563;45.970;12.680;2023-02-28T00:56:43;101951.91;;;5.20;45.74
76653;BME280;65563;45.970;12.680;2023-02-28T00:57:43;101947.13;;;5.14;46.06
76653;BME280;65563;45.970;12.680;2023-02-28T00:58:43;101949.25;;;5.20;45.83
76653;BME280;65563;45.970;12.680;2023-02-28T00:59:43;101947.22;;;5.23;45.61
76653;BME280;65563;45.970;12.680;2023-02-28T01:00:43;101950.09;;;5.20;45.99
76653;BME280;65563;45.970;12.680;2023-02-28T01:01:44;101952.13;;;5.17;46.14
76653;BME280;65563;45.970;12.680;2023-02-28T01:02:44;101950.09;;;5.20;46.08
76653;BME280;65563;45.970;12.680;2023-02-28T01:03:44;101944.09;;;5.18;45.84
76653;BME280;65563;45.970;12.680;2023-02-28T01:04:45;101950.19;;;5.19;45.96
76653;BME280;65563;45.970;12.680;2023-02-28T01:05:46;101943.41;;;5.16;46.11
76653;BME280;65563;45.970;12.680;2023-02-28T01:06:46;101947.81;;;5.16;45.92
76653;BME280;65563;45.970;12.680;2023-02-28T01:07:46;101953.34;;;5.13;46.13
76653;BME280;65563;45.970;12.680;2023-02-28T01:08:46;101947.56;;;5.19;45.83
76653;BME280;65563;45.970;12.680;2023-02-28T01:09:47;101944.25;;;5.17;46.21
76653;BME280;65563;45.970;12.680;2023-02-28T01:10:47;101946.63;;;5.09;46.40
76653;BME280;65563;45.970;12.680;2023-02-28T01:11:47;101952.03;;;5.07;46.71
76653;BME280;65563;45.970;12.680;2023-02-28T01:12:47;101953.94;;;5.05;46.52
76653;BME280;65563;45.970;12.680;2023-02-28T01:13:47;101949.41;;;5.07;46.02
76653;BME280;65563;45.970;12.680;2023-02-28T01:14:48;101950.56;;;5.14;45.75
76653;BME280;65563;45.970;12.680;2023-02-28T01:15:51;101959.44;;;5.13;45.85
76653;BME280;65563;45.970;12.680;2023-02-28T01:16:52;101957.66;;;5.14;46.34
76653;BME280;65563;45.970;12.680;2023-02-28T01:17:52;101954.88;;;5.15;46.09
76653;BME280;65563;45.970;12.680;2023-02-28T01:18:53;101958.34;;;5.16;46.00
76653;BME280;65563;45.970;12.680;2023-02-28T01:19:54;101955.59;;;5.17;46.14
76653;BME280;65563;45.970;12.680;2023-02-28T01:20:54;101958.34;;;5.16;46.23
76653;BME280;65563;45.970;12.680;2023-02-28T01:21:54;101950.44;;;5.16;46.62
76653;BME280;65563;45.970;12.680;2023-02-28T01:22:54;101947.81;;;5.16;46.47
76653;BME280;65563;45.970;12.680;2023-02-28T01:23:56;101945.31;;;5.14;46.45
76653;BME280;65563;45.970;12.680;2023-02-28T01:24:56;101946.88;;;5.17;46.19
76653;BME280;65563;45.970;12.680;2023-02-28T01:25:56;101941.47;;;5.18;46.19
76653;BME280;65563;45.970;12.680;2023-02-28T01:26:56;101938.97;;;5.17;46.35
76653;BME280;65563;45.970;12.680;2023-02-28T01:27:56;101950.19;;;5.19;46.03
76653;BME280;65563;45.970;12.680;2023-02-28T01:28:57;101951.41;;;5.15;46.23
76653;BME280;65563;45.970;12.680;2023-02-28T01:29:57;101937.06;;;5.08;46.53
76653;BME280;65563;45.970;12.680;2023-02-28T01:30:57;101951.06;;;5.08;46.57
76653;BME280;65563;45.970;12.680;2023-02-28T01:31:57;101951.66;;;5.12;46.37
76653;BME280;65563;45.970;12.680;2023-02-28T01:32:58;101942.81;;;5.13;46.62
76653;BME280;65563;45.970;12.680;2023-02-28T01:33:58;101947.81;;;5.16;46.68
76653;BME280;65563;45.970;12.680;2023-02-28T01:34:58;101950.81;;;5.11;46.31
76653;BME280;65563;45.970;12.680;2023-02-28T01:35:59;101944.34;;;5.15;46.78
76653;BME280;65563;45.970;12.680;2023-02-28T01:36:59;101951.19;;;5.07;46.61
76653;BME280;65563;45.970;12.680;2023-02-28T01:38:00;101953.81;;;5.18;46.41
76653;BME280;65563;45.970;12.680;2023-02-28T01:39:00;101947.56;;;5.19;46.40
76653;BME280;65563;45.970;12.680;2023-02-28T01:40:00;101947.47;;;5.20;46.22
76653;BME280;65563;45.970;12.680;2023-02-28T01:41:00;101949.75;;;5.14;46.71
76653;BME280;65563;45.970;12.680;2023-02-28T01:42:00;101951.16;;;5.18;46.40
76653;BME280;65563;45.970;12.680;2023-02-28T01:43:00;101949.13;;;5.21;46.15
76653;BME280;65563;45.970;12.680;2023-02-28T01:45:06;101947.81;;;5.16;46.36
76653;BME280;65563;45.970;12.680;2023-02-28T01:46:16;101946.03;;;5.16;46.42
76653;BME280;65563;45.970;12.680;2023-02-28T01:47:16;101939.66;;;5.19;46.29
76653;BME280;65563;45.970;12.680;2023-02-28T01:48:16;101948.53;;;5.18;46.04
76653;BME280;65563;45.970;12.680;2023-02-28T01:49:17;101949.50;;;5.17;46.39
76653;BME280;65563;45.970;12.680;2023-02-28T01:50:19;101949.38;;;5.18;46.59
76653;BME280;65563;45.970;12.680;2023-02-28T01:51:22;101946.28;;;5.13;46.25
76653;BME280;65563;45.970;12.680;2023-02-28T01:52:22;101958.94;;;5.19;46.73
76653;BME280;65563;45.970;12.680;2023-02-28T01:53:24;101954.53;;;5.20;46.70
76653;BME280;65563;45.970;12.680;2023-02-28T01:54:29;101959.06;;;5.18;46.70
76653;BME280;65563;45.970;12.680;2023-02-28T01:55:30;101961.69;;;5.18;46.46
76653;BME280;65563;45.970;12.680;2023-02-28T01:56:33;101958.94;;;5.19;46.05
76653;BME280;65563;45.970;12.680;2023-02-28T01:57:36;101950.09;;;5.20;46.02
76653;BME280;65563;45.970;12.680;2023-02-28T01:58:38;101954.16;;;5.24;46.44
76653;BME280;65563;45.970;12.680;2023-02-28T01:59:39;101958.44;;;5.25;46.23
76653;BME280;65563;45.970;12.680;2023-02-28T02:00:42;101953.31;;;5.24;46.13
76653;BME280;65563;45.970;12.680;2023-02-28T02:01:42;101955.22;;;5.22;46.45
76653;BME280;65563;45.970;12.680;2023-02-28T02:02:43;101954.63;;;5.18;46.51
76653;BME280;65563;45.970;12.680;2023-02-28T02:03:44;101951.41;;;5.15;46.74
76653;BME280;65563;45.970;12.680;2023-02-28T02:04:54;101961.69;;;5.18;46.56
76653;BME280;65563;45.970;12.680;2023-02-28T02:05:56;101966.00;;;5.19;46.57
76653;BME280;65563;45.970;12.680;2023-02-28T02:06:57;101962.44;;;5.20;46.29
76653;BME280;65563;45.970;12.680;2023-02-28T02:08:01;101962.91;;;5.14;46.45
76653;BME280;65563;45.970;12.680;2023-02-28T02:09:02;101960.28;;;5.14;46.58
76653;BME280;65563;45.970;12.680;2023-02-28T02:10:13;101964.34;;;5.18;46.25
76653;BME280;65563;45.970;12.680;2023-02-28T02:11:13;101968.28;;;5.23;46.06
76653;BME280;65563;45.970;12.680;2023-02-28T02:12:31;101967.69;;;5.20;46.53
76653;BME280;65563;45.970;12.680;2023-02-28T02:13:38;101977.50;;;5.18;46.86
76653;BME280;65563;45.970;12.680;2023-02-28T02:14:54;101969.34;;;5.21;46.61
76653;BME280;65563;45.970;12.680;2023-02-28T02:18:19;101974.13;;;5.27;46.72
76653;BME280;65563;45.970;12.680;2023-02-28T02:20:58;101974.63;;;5.21;46.59
76653;BME280;65563;45.970;12.680;2023-02-28T02:22:05;101970.91;;;5.23;47.02
76653;BME280;65563;45.970;12.680;2023-02-28T02:25:39;101970.09;;;5.23;46.62
76653;BME280;65563;45.970;12.680;2023-02-28T02:33:10;101971.41;;;5.17;46.96
76653;BME280;65563;45.970;12.680;2023-02-28T02:35:22;101977.88;;;5.13;47.35
76653;BME280;65563;45.970;12.680;2023-02-28T02:39:30;101975.25;;;5.13;47.04
76653;BME280;65563;45.970;12.680;2023-02-28T02:41:14;101978.56;;;5.15;46.43
76653;BME280;65563;45.970;12.680;2023-02-28T02:41:54;101969.75;;;5.16;46.76
76653;BME280;65563;45.970;12.680;2023-02-28T02:43:12;101978.22;;;5.09;46.69
76653;BME280;65563;45.970;12.680;2023-02-28T02:44:18;101969.16;;;5.13;46.91
76653;BME280;65563;45.970;12.680;2023-02-28T02:45:24;101977.16;;;5.11;47.05
76653;BME280;65563;45.970;12.680;2023-02-28T02:46:37;101983.84;;;5.15;47.06
76653;BME280;65563;45.970;12.680;2023-02-28T02:47:38;101975.59;;;5.09;47.02
76653;BME280;65563;45.970;12.680;2023-02-28T02:48:40;101963.88;;;5.13;47.03
76653;BME280;65563;45.970;12.680;2023-02-28T02:49:46;101970.81;;;5.14;46.97
76653;BME280;65563;45.970;12.680;2023-02-28T02:50:49;101973.69;;;5.11;47.20
76653;BME280;65563;45.970;12.680;2023-02-28T02:51:50;101973.69;;;5.11;47.34
76653;BME280;65563;45.970;12.680;2023-02-28T02:52:52;101978.94;;;5.11;47.23
76653;BME280;65563;45.970;12.680;2023-02-28T02:53:56;101974.66;;;5.10;47.22
76653;BME280;65563;45.970;12.680;2023-02-28T02:54:58;101972.13;;;5.08;47.68
76653;BME280;65563;45.970;12.680;2023-02-28T02:55:59;101965.19;;;5.07;47.48
76653;BME280;65563;45.970;12.680;2023-02-28T02:57:01;101972.50;;;5.03;47.88
76653;BME280;65563;45.970;12.680;2023-02-28T02:58:04;101970.31;;;5.09;47.57
76653;BME280;65563;45.970;12.680;2023-02-28T02:59:07;101966.03;;;5.08;47.52
76653;BME280;65563;45.970;12.680;2023-02-28T03:00:09;101967.59;;;5.10;47.47
76653;BME280;65563;45.970;12.680;2023-02-28T03:01:18;101966.66;;;5.00;47.22
76653;BME280;65563;45.970;12.680;2023-02-28T03:02:19;101974.75;;;5.08;47.62
76653;BME280;65563;45.970;12.680;2023-02-28T03:03:21;101967.97;;;5.06;47.37
76653;BME280;65563;45.970;12.680;2023-02-28T03:04:22;101971.19;;;5.09;47.32
76653;BME280;65563;45.970;12.680;2023-02-28T03:05:26;101970.91;;;5.12;47.42
76653;BME280;65563;45.970;12.680;2023-02-28T03:06:26;101974.41;;;5.13;47.29
76653;BME280;65563;45.970;12.680;2023-02-28T03:07:27;101971.88;;;5.11;47.63
76653;BME280;65563;45.970;12.680;2023-02-28T03:08:29;101965.66;;;5.12;47.58
76653;BME280;65563;45.970;12.680;2023-02-28T03:09:32;101975.25;;;5.13;47.83
76653;BME280;65563;45.970;12.680;2023-02-28T03:11:36;101968.88;;;5.16;47.65
76653;BME280;65563;45.970;12.680;2023-02-28T03:12:40;101969.59;;;5.18;47.41
76653;BME280;65563;45.970;12.680;2023-02-28T03:15:55;101960.72;;;5.19;47.58
76653;BME280;65563;45.970;12.680;2023-02-28T03:18:01;101954.88;;;5.15;47.73
76653;BME280;65563;45.970;12.680;2023-02-28T03:20:40;101955.13;;;5.12;47.42
76653;BME280;65563;45.970;12.680;2023-02-28T03:21:37;101956.91;;;5.12;47.64
76653;BME280;65563;45.970;12.680;2023-02-28T03:23:55;101950.13;;;5.09;47.81
76653;BME280;65563;45.970;12.680;2023-02-28T03:25:05;101960.06;;;5.06;47.70
76653;BME280;65563;45.970;12.680;2023-02-28T03:26:11;101960.28;;;5.14;47.73
76653;BME280;65563;45.970;12.680;2023-02-28T03:27:23;101958.63;;;5.13;47.64
76653;BME280;65563;45.970;12.680;2023-02-28T03:28:30;101949.03;;;5.12;47.76
76653;BME280;65563;45.970;12.680;2023-02-28T03:29:33;101952.16;;;5.06;48.08
76653;BME280;65563;45.970;12.680;2023-02-28T03:31:39;101955.25;;;5.11;48.26
76653;BME280;65563;45.970;12.680;2023-02-28T03:32:43;101959.34;;;5.03;48.33
76653;BME280;65563;45.970;12.680;2023-02-28T03:33:51;101954.53;;;5.09;48.16
76653;BME280;65563;45.970;12.680;2023-02-28T03:34:56;101958.84;;;5.10;47.82
76653;BME280;65563;45.970;12.680;2023-02-28T03:35:59;101961.00;;;5.05;47.99
76653;BME280;65563;45.970;12.680;2023-02-28T03:37:07;101962.69;;;5.06;48.51
76653;BME280;65563;45.970;12.680;2023-02-28T03:38:28;101955.00;;;5.14;48.37
76653;BME280;65563;45.970;12.680;2023-02-28T03:40:39;101959.06;;;5.18;48.14
76653;BME280;65563;45.970;12.680;2023-02-28T03:41:42;101956.09;;;5.11;48.30
76653;BME280;65563;45.970;12.680;2023-02-28T03:42:44;101958.97;;;5.08;48.36
76653;BME280;65563;45.970;12.680;2023-02-28T03:43:58;101958.22;;;5.17;48.38
76653;BME280;65563;45.970;12.680;2023-02-28T03:45:01;101954.41;;;5.10;48.25
76653;BME280;65563;45.970;12.680;2023-02-28T03:46:03;101953.34;;;5.13;48.75
76653;BME280;65563;45.970;12.680;2023-02-28T03:47:07;101945.78;;;5.08;48.44
76653;BME280;65563;45.970;12.680;2023-02-28T03:48:13;101953.09;;;5.05;48.76
76653;BME280;65563;45.970;12.680;2023-02-28T03:49:17;101950.22;;;5.08;48.06
76653;BME280;65563;45.970;12.680;2023-02-28T03:51:55;101946.19;;;5.03;48.85
76653;BME280;65563;45.970;12.680;2023-02-28T03:52:58;101952.66;;;4.99;48.61
76653;BME280;65563;45.970;12.680;2023-02-28T03:54:02;101946.91;;;5.06;48.54
76653;BME280;65563;45.970;12.680;2023-02-28T03:55:06;101950.22;;;5.08;48.46
76653;BME280;65563;45.970;12.680;2023-02-28T03:56:11;101949.63;;;5.04;48.63
76653;BME280;65563;45.970;12.680;2023-02-28T03:57:17;101949.53;;;5.06;48.32
76653;BME280;65563;45.970;12.680;2023-02-28T03:58:21;101950.59;;;5.03;48.64
76653;BME280;65563;45.970;12.680;2023-02-28T03:59:32;101956.94;;;5.00;48.82
76653;BME280;65563;45.970;12.680;2023-02-28T04:00:35;101954.66;;;5.07;48.58
76653;BME280;65563;45.970;12.680;2023-02-28T04:01:38;101950.00;;;5.11;48.97
76653;BME280;65563;45.970;12.680;2023-02-28T04:02:39;101955.63;;;5.06;48.57
76653;BME280;65563;45.970;12.680;2023-02-28T04:03:40;101962.09;;;5.02;48.60
76653;BME280;65563;45.970;12.680;2023-02-28T04:04:40;101955.75;;;5.05;48.24
76653;BME280;65563;45.970;12.680;2023-02-28T04:07:07;101959.59;;;5.00;48.72
76653;BME280;65563;45.970;12.680;2023-02-28T04:08:07;101955.97;;;5.01;48.79
76653;BME280;65563;45.970;12.680;2023-02-28T04:09:08;101963.19;;;4.99;48.96
76653;BME280;65563;45.970;12.680;2023-02-28T04:10:09;101961.97;;;5.03;49.13
76653;BME280;65563;45.970;12.680;2023-02-28T04:11:23;101955.28;;;4.99;49.10
76653;BME280;65563;45.970;12.680;2023-02-28T04:12:27;101962.69;;;5.06;48.94
76653;BME280;65563;45.970;12.680;2023-02-28T04:13:27;101956.72;;;5.03;48.82
76653;BME280;65563;45.970;12.680;2023-02-28T04:14:28;101957.91;;;4.99;49.21
76653;BME280;65563;45.970;12.680;2023-02-28T04:15:28;101964.47;;;5.05;49.04
76653;BME280;65563;45.970;12.680;2023-02-28T04:16:29;101967.69;;;5.09;49.27
76653;BME280;65563;45.970;12.680;2023-02-28T04:17:29;101959.44;;;5.13;48.71
76653;BME280;65563;45.970;12.680;2023-02-28T04:18:29;101962.91;;;5.14;48.83
76653;BME280;65563;45.970;12.680;2023-02-28T04:19:29;101959.09;;;5.07;48.76
76653;BME280;65563;45.970;12.680;2023-02-28T04:20:29;101958.84;;;5.10;49.16
76653;BME280;65563;45.970;12.680;2023-02-28T04:21:30;101960.53;;;5.11;48.95
76653;BME280;65563;45.970;12.680;2023-02-28T04:22:31;101962.31;;;5.10;49.12
76653;BME280;65563;45.970;12.680;2023-02-28T04:23:31;101954.41;;;5.10;48.83
76653;BME280;65563;45.970;12.680;2023-02-28T04:24:31;101955.00;;;5.14;48.83
76653;BME280;65563;45.970;12.680;2023-02-28T04:25:31;101953.59;;;5.10;49.01
76653;BME280;65563;45.970;12.680;2023-02-28T04:26:32;101955.25;;;5.11;48.77
76653;BME280;65563;45.970;12.680;2023-02-28T04:27:32;101949.03;;;5.12;49.00
76653;BME280;65563;45.970;12.680;2023-02-28T04:28:33;101957.16;;;5.09;48.53
76653;BME280;65563;45.970;12.680;2023-02-28T04:29:33;101958.25;;;5.06;48.51
76653;BME280;65563;45.970;12.680;2023-02-28T04:30:33;101953.59;;;5.10;48.74
76653;BME280;65563;45.970;12.680;2023-02-28T04:31:33;101956.91;;;5.12;48.67
76653;BME280;65563;45.970;12.680;2023-02-28T04:32:34;101958.84;;;5.10;48.67
76653;BME280;65563;45.970;12.680;2023-02-28T04:33:34;101954.66;;;5.07;48.97
76653;BME280;65563;45.970;12.680;2023-02-28T04:34:34;101958.13;;;5.08;49.28
76653;BME280;65563;45.970;12.680;2023-02-28T04:35:34;101956.81;;;5.13;49.04
76653;BME280;65563;45.970;12.680;2023-02-28T04:36:34;101953.94;;;5.05;49.34
76653;BME280;65563;45.970;12.680;2023-02-28T04:37:34;101951.91;;;5.09;48.92
76653;BME280;65563;45.970;12.680;2023-02-28T04:38:35;101953.09;;;5.05;48.69
76653;BME280;65563;45.970;12.680;2023-02-28T04:39:36;101953.25;;;5.03;48.57
76653;BME280;65563;45.970;12.680;2023-02-28T04:40:36;101952.16;;;5.06;48.77
76653;BME280;65563;45.970;12.680;2023-02-28T04:41:36;101947.16;;;5.02;49.27
76653;BME280;65563;45.970;12.680;2023-02-28T04:42:37;101945.56;;;5.11;48.85
76653;BME280;65563;45.970;12.680;2023-02-28T04:43:37;101947.34;;;5.11;48.75
76653;BME280;65563;45.970;12.680;2023-02-28T04:44:37;101957.75;;;5.12;48.85
76653;BME280;65563;45.970;12.680;2023-02-28T04:45:37;101953.69;;;5.08;49.29
76653;BME280;65563;45.970;12.680;2023-02-28T04:46:37;101960.91;;;5.06;49.30
76653;BME280;65563;45.970;12.680;2023-02-28T04:47:37;101956.56;;;5.05;48.71
76653;BME280;65563;45.970;12.680;2023-02-28T04:48:38;101952.16;;;5.06;49.40
76653;BME280;65563;45.970;12.680;2023-02-28T04:49:39;101953.84;;;5.07;49.03
76653;BME280;65563;45.970;12.680;2023-02-28T04:50:39;101954.66;;;5.07;49.30
76653;BME280;65563;45.970;12.680;2023-02-28T04:51:39;101952.66;;;4.99;49.27
76653;BME280;65563;45.970;12.680;2023-02-28T04:52:39;101949.63;;;5.04;48.82
76653;BME280;65563;45.970;12.680;2023-02-28T04:53:40;101954.09;;;4.92;49.36
76653;BME280;65563;45.970;12.680;2023-02-28T04:54:40;101956.84;;;5.02;49.21
76653;BME280;65563;45.970;12.680;2023-02-28T04:55:41;101954.44;;;4.99;49.78
76653;BME280;65563;45.970;12.680;2023-02-28T04:56:41;101962.81;;;5.04;49.46
76653;BME280;65563;45.970;12.680;2023-02-28T04:57:41;101954.06;;;5.03;48.73
76653;BME280;65563;45.970;12.680;2023-02-28T04:58:41;101963.41;;;5.08;49.00
76653;BME280;65563;45.970;12.680;2023-02-28T04:59:41;101954.66;;;5.07;49.14
76653;BME280;65563;45.970;12.680;2023-02-28T05:00:41;101962.94;;;5.02;49.04
76653;BME280;65563;45.970;12.680;2023-02-28T05:01:44;101961.75;;;4.95;49.72
76653;BME280;65563;45.970;12.680;2023-02-28T05:02:45;101960.31;;;5.02;49.26
76653;BME280;65563;45.970;12.680;2023-02-28T05:03:45;101964.84;;;5.00;49.86
76653;BME280;65563;45.970;12.680;2023-02-28T05:04:45;101963.19;;;4.99;49.68
76653;BME280;65563;45.970;12.680;2023-02-28T05:05:46;101964.97;;;4.99;49.79
76653;BME280;65563;45.970;12.680;2023-02-28T05:06:46;101964.38;;;5.07;49.67
76653;BME280;65563;45.970;12.680;2023-02-28T05:07:46;101949.06;;;5.00;49.58
76653;BME280;65563;45.970;12.680;2023-02-28T05:08:46;101956.84;;;5.02;49.39
76653;BME280;65563;45.970;12.680;2023-02-28T05:09:47;101953.84;;;5.07;49.57
76653;BME280;65563;45.970;12.680;2023-02-28T05:10:47;101949.06;;;5.00;49.59
76653;BME280;65563;45.970;12.680;2023-02-28T05:11:47;101943.53;;;5.03;49.37
76653;BME280;65563;45.970;12.680;2023-02-28T05:12:47;101946.19;;;5.03;49.74
76653;BME280;65563;45.970;12.680;2023-02-28T05:13:48;101946.31;;;5.02;49.43
76653;BME280;65563;45.970;12.680;2023-02-28T05:14:48;101944.50;;;5.02;49.42
76653;BME280;65563;45.970;12.680;2023-02-28T05:15:48;101960.31;;;5.02;49.13
76653;BME280;65563;45.970;12.680;2023-02-28T05:16:48;101945.59;;;5.00;49.09
76653;BME280;65563;45.970;12.680;2023-02-28T05:17:48;101945.44;;;5.01;49.09
76653;BME280;65563;45.970;12.680;2023-02-28T05:18:49;101953.63;;;4.98;49.32
76653;BME280;65563;45.970;12.680;2023-02-28T05:19:49;101956.59;;;4.94;49.51
76653;BME280;65563;45.970;12.680;2023-02-28T05:20:49;101958.78;;;4.89;49.79
76653;BME280;65563;45.970;12.680;2023-02-28T05:21:52;101953.16;;;4.82;49.62
76653;BME280;65563;45.970;12.680;2023-02-28T05:22:53;101950.28;;;4.85;49.88
76653;BME280;65563;45.970;12.680;2023-02-28T05:23:54;101949.09;;;4.78;50.42
76653;BME280;65563;45.970;12.680;2023-02-28T05:24:54;101954.34;;;4.78;50.00
76653;BME280;65563;45.970;12.680;2023-02-28T05:25:54;101947.41;;;4.77;49.88
76653;BME280;65563;45.970;12.680;2023-02-28T05:26:54;101952.56;;;4.78;50.07
76653;BME280;65563;45.970;12.680;2023-02-28T05:27:55;101946.22;;;4.70;49.80
76653;BME280;65563;45.970;12.680;2023-02-28T05:28:55;101949.56;;;4.72;50.31
76653;BME280;65563;45.970;12.680;2023-02-28T05:29:56;101944.78;;;4.66;50.46
76653;BME280;65563;45.970;12.680;2023-02-28T05:30:56;101945.00;;;4.63;50.34
76653;BME280;65563;45.970;12.680;2023-02-28T05:31:56;101952.91;;;4.63;50.23
76653;BME280;65563;45.970;12.680;2023-02-28T05:32:57;101948.63;;;4.62;50.44
76653;BME280;65563;45.970;12.680;2023-02-28T05:33:57;101947.66;;;4.63;49.96
76653;BME280;65563;45.970;12.680;2023-02-28T05:34:57;101946.13;;;4.60;50.21
76653;BME280;65563;45.970;12.680;2023-02-28T05:35:57;101952.44;;;4.58;50.52
76653;BME280;65563;45.970;12.680;2023-02-28T05:36:57;101946.00;;;4.50;51.02
76653;BME280;65563;45.970;12.680;2023-02-28T05:37:57;101944.31;;;4.49;51.05
76653;BME280;65563;45.970;12.680;2023-02-28T05:38:58;101944.91;;;4.53;50.72
76653;BME280;65563;45.970;12.680;2023-02-28T05:39:58;101944.19;;;4.51;50.53
76653;BME280;65563;45.970;12.680;2023-02-28T05:40:58;101947.66;;;4.40;51.18
76653;BME280;65563;45.970;12.680;2023-02-28T05:41:58;101948.63;;;4.39;50.97
76653;BME280;65563;45.970;12.680;2023-02-28T05:42:58;101946.69;;;4.41;51.19
76653;BME280;65563;45.970;12.680;2023-02-28T05:43:58;101945.88;;;4.41;50.93
76653;BME280;65563;45.970;12.680;2023-02-28T05:44:59;101945.03;;;4.40;51.48
76653;BME280;65563;45.970;12.680;2023-02-28T05:45:59;101942.63;;;4.37;51.08
76653;BME280;65563;45.970;12.680;2023-02-28T05:47:01;101943.59;;;4.36;51.50
76653;BME280;65563;45.970;12.680;2023-02-28T05:48:01;101943.81;;;4.33;51.47
76653;BME280;65563;45.970;12.680;2023-02-28T05:49:02;101948.38;;;4.42;51.23
76653;BME280;65563;45.970;12.680;2023-02-28T05:50:02;101944.28;;;4.38;51.32
76653;BME280;65563;45.970;12.680;2023-02-28T05:51:03;101946.09;;;4.38;51.25
76653;BME280;65563;45.970;12.680;2023-02-28T05:52:03;101939.16;;;4.37;51.53
76653;BME280;65563;45.970;12.680;2023-02-28T05:53:04;101935.56;;;4.38;51.18